createdAt,value
2022-09-04T00:01:14.699Z,3.80
2022-09-04T00:03:57.639Z,3.77
2022-09-04T00:06:34.205Z,3.53
2022-09-04T00:09:12.375Z,2.80
2022-09-04T00:11:51.004Z,3.00
2022-09-04T00:14:23.078Z,3.90
2022-09-04T00:17:02.143Z,3.03
2022-09-04T00:19:37.547Z,3.50
2022-09-04T00:22:16.968Z,2.80
2022-09-04T00:24:53.444Z,2.10
2022-09-04T00:27:26.105Z,2.63
2022-09-04T00:30:01.892Z,2.50
2022-09-04T00:32:38.740Z,2.10
2022-09-04T00:35:15.948Z,2.53
2022-09-04T00:37:49.619Z,3.50
2022-09-04T00:40:31.163Z,2.03
2022-09-04T00:43:50.736Z,3.13
2022-09-04T00:46:49.788Z,3.83
2022-09-04T00:49:37.695Z,2.70
2022-09-04T00:52:20.734Z,2.47
2022-09-04T00:55:28.921Z,2.30
2022-09-04T00:58:32.644Z,1.90
2022-09-04T01:01:02.365Z,1.83
2022-09-04T01:03:43.765Z,3.30
2022-09-04T01:06:31.013Z,2.07
2022-09-04T01:09:24.874Z,1.90
2022-09-04T01:12:09.688Z,1.80
2022-09-04T01:14:44.442Z,1.97
2022-09-04T01:17:27.824Z,2.10
2022-09-04T01:20:03.520Z,2.10
2022-09-04T01:23:00.175Z,2.13
2022-09-04T01:25:39.472Z,2.07
2022-09-04T01:28:14.909Z,2.50
2022-09-04T01:30:52.239Z,2.77
2022-09-04T01:33:30.575Z,3.30
2022-09-04T01:36:07.084Z,2.60
2022-09-04T01:38:41.601Z,2.30
2022-09-04T01:41:19.695Z,2.37
2022-09-04T01:43:50.127Z,2.20
2022-09-04T01:46:40.305Z,2.03
2022-09-04T01:49:20.734Z,2.10
2022-09-04T01:51:58.511Z,2.43
2022-09-04T01:54:39.080Z,3.00
2022-09-04T01:57:17.010Z,2.13
2022-09-04T02:00:05.704Z,2.53
2022-09-04T02:02:47.541Z,2.00
2022-09-04T02:05:23.381Z,4.17
2022-09-04T02:08:11.528Z,3.13
2022-09-04T02:10:50.464Z,2.17
2022-09-04T02:13:23.684Z,2.40
2022-09-04T02:16:08.386Z,1.97
2022-09-04T02:18:51.123Z,1.90
2022-09-04T02:21:27.574Z,2.00
2022-09-04T02:24:06.511Z,2.10
2022-09-04T02:26:41.483Z,1.93
2022-09-04T02:29:16.728Z,1.53
2022-09-04T02:31:54.874Z,2.07
2022-09-04T02:34:33.969Z,2.00
2022-09-04T02:37:10.155Z,1.90
2022-09-04T02:39:47.320Z,1.70
2022-09-04T02:42:22.903Z,1.93
2022-09-04T02:45:02.406Z,2.00
2022-09-04T02:47:43.988Z,1.50
2022-09-04T02:50:30.283Z,2.10
2022-09-04T02:53:18.274Z,1.67
2022-09-04T02:56:02.123Z,1.97
2022-09-04T02:58:47.052Z,1.63
2022-09-04T03:01:22.640Z,1.73
2022-09-04T03:04:00.329Z,1.80
2022-09-04T03:06:43.958Z,1.60
2022-09-04T03:09:16.745Z,2.10
2022-09-04T03:11:51.737Z,1.50
2022-09-04T03:14:34.648Z,1.90
2022-09-04T03:17:10.562Z,1.80
2022-09-04T03:19:45.270Z,1.70
2022-09-04T03:22:19.631Z,2.20
2022-09-04T03:25:11.059Z,1.97
2022-09-04T03:27:39.946Z,1.67
2022-09-04T03:30:10.604Z,2.03
2022-09-04T03:32:49.292Z,1.80
2022-09-04T03:35:25.881Z,1.67
2022-09-04T03:38:03.645Z,1.80
2022-09-04T03:40:39.107Z,1.90
2022-09-04T03:43:32.141Z,2.27
2022-09-04T03:46:07.633Z,2.17
2022-09-04T03:48:55.674Z,2.10
2022-09-04T03:51:40.091Z,2.37
2022-09-04T03:54:24.536Z,2.20
2022-09-04T03:57:19.903Z,2.20
2022-09-04T04:00:03.535Z,3.13
2022-09-04T04:03:01.900Z,2.53
2022-09-04T04:05:41.292Z,1.90
2022-09-04T04:08:44.251Z,2.30
2022-09-04T04:11:27.144Z,1.73
2022-09-04T04:14:27.121Z,1.83
2022-09-04T04:17:07.474Z,2.10
2022-09-04T04:19:54.495Z,3.20
2022-09-04T04:22:43.095Z,2.00
2022-09-04T04:25:25.337Z,2.37
2022-09-04T04:28:09.361Z,4.93
2022-09-04T04:30:48.275Z,1.83
2022-09-04T04:33:32.630Z,2.00
2022-09-04T04:36:10.198Z,2.83
2022-09-04T04:38:48.333Z,2.00
2022-09-04T04:41:57.996Z,1.90
2022-09-04T04:44:53.485Z,2.60
2022-09-04T04:47:37.144Z,2.87
2022-09-04T04:50:18.934Z,2.00
2022-09-04T04:53:00.019Z,2.53
2022-09-04T04:55:49.665Z,4.23
2022-09-04T04:58:53.991Z,3.37
2022-09-04T05:01:37.001Z,2.13
2022-09-04T05:04:15.318Z,2.87
2022-09-04T05:06:52.207Z,2.67
2022-09-04T05:09:33.502Z,2.30
2022-09-04T05:12:10.662Z,4.27
2022-09-04T05:14:51.715Z,6.10
2022-09-04T05:17:32.733Z,3.20
2022-09-04T05:20:25.214Z,4.43
2022-09-04T05:23:03.564Z,1.80
2022-09-04T05:25:40.299Z,2.70
2022-09-04T05:28:19.905Z,2.90
2022-09-04T05:30:56.561Z,2.20
2022-09-04T05:33:32.426Z,2.60
2022-09-04T05:36:10.159Z,2.57
2022-09-04T05:38:48.236Z,2.60
2022-09-04T05:41:31.777Z,2.60
2022-09-04T05:44:24.146Z,2.70
2022-09-04T05:47:06.586Z,3.60
2022-09-04T05:49:54.236Z,2.70
2022-09-04T05:52:40.904Z,10.30
2022-09-04T05:55:37.269Z,7.13
2022-09-04T05:58:25.974Z,3.87
2022-09-04T06:01:06.263Z,4.53
2022-09-04T06:04:22.626Z,3.10
2022-09-04T06:07:07.638Z,3.23
2022-09-04T06:09:52.072Z,5.03
2022-09-04T06:12:41.517Z,3.70
2022-09-04T06:15:37.566Z,8.47
2022-09-04T06:18:47.231Z,3.60
2022-09-04T06:21:41.630Z,5.63
2022-09-04T06:24:30.888Z,4.33
2022-09-04T06:27:28.004Z,6.73
2022-09-04T06:30:07.193Z,6.03
2022-09-04T06:33:01.455Z,6.50
2022-09-04T06:35:52.111Z,7.07
2022-09-04T06:38:41.229Z,6.67
2022-09-04T06:41:40.384Z,6.90
2022-09-04T06:44:23.648Z,7.13
2022-09-04T06:47:04.671Z,8.53
2022-09-04T06:49:56.382Z,10.90
2022-09-04T06:52:33.775Z,15.53
2022-09-04T06:55:15.034Z,14.70
2022-09-04T06:58:03.613Z,10.73
2022-09-04T07:00:39.502Z,10.47
2022-09-04T07:03:22.069Z,9.47
2022-09-04T07:05:59.415Z,17.27
2022-09-04T07:08:46.018Z,11.10
2022-09-04T07:11:25.531Z,10.33
2022-09-04T07:14:20.253Z,12.67
2022-09-04T07:17:01.249Z,9.87
2022-09-04T07:19:54.267Z,11.67
2022-09-04T07:22:58.814Z,11.07
2022-09-04T07:25:35.134Z,10.00
2022-09-04T07:28:16.250Z,10.40
2022-09-04T07:30:49.298Z,9.17
2022-09-04T07:33:25.777Z,9.60
2022-09-04T07:36:01.449Z,9.17
2022-09-04T07:38:38.790Z,12.07
2022-09-04T07:41:12.943Z,9.73
2022-09-04T07:43:55.571Z,9.40
2022-09-04T07:46:30.528Z,7.80
2022-09-04T07:49:10.236Z,7.83
2022-09-04T07:51:44.336Z,7.97
2022-09-04T07:54:46.525Z,8.33
2022-09-04T07:57:42.697Z,7.97
2022-09-04T08:00:18.190Z,5.93
2022-09-04T08:03:01.629Z,6.47
2022-09-04T08:05:35.049Z,9.60
2022-09-04T08:08:28.995Z,7.65
2022-09-04T08:11:16.325Z,9.63
2022-09-04T08:14:18.696Z,4.53
2022-09-04T08:16:56.768Z,4.87
2022-09-04T08:19:43.155Z,4.77
2022-09-04T08:22:14.585Z,4.50
2022-09-04T08:25:18.346Z,4.13
2022-09-04T08:28:02.879Z,3.13
2022-09-04T08:30:39.955Z,3.00
2022-09-04T08:33:38.140Z,3.00
2022-09-04T08:36:17.576Z,3.20
2022-09-04T08:38:59.301Z,3.30
2022-09-04T08:42:07.159Z,3.20
2022-09-04T08:45:15.422Z,2.80
2022-09-04T08:48:22.599Z,2.55
2022-09-04T08:51:21.631Z,10.45
2022-09-04T08:54:21.987Z,3.65
2022-09-04T08:57:09.779Z,2.40
2022-09-04T09:00:03.162Z,2.60
2022-09-04T09:03:19.442Z,2.20
2022-09-04T09:06:27.621Z,2.80
2022-09-04T09:09:35.535Z,2.67
2022-09-04T09:12:41.084Z,3.42
2022-09-04T09:15:42.957Z,4.82
2022-09-04T09:18:31.608Z,3.47
2022-09-04T09:21:09.029Z,2.75
2022-09-04T09:24:09.786Z,2.83
2022-09-04T09:26:44.942Z,2.85
2022-09-04T09:29:50.042Z,3.65
2022-09-04T09:33:01.809Z,4.28
2022-09-04T09:36:20.423Z,3.65
2022-09-04T09:39:29.861Z,3.97
2022-09-04T09:42:38.621Z,3.90
2022-09-04T09:45:55.749Z,3.55
2022-09-04T09:49:03.718Z,5.20
2022-09-04T09:52:18.759Z,3.53
2022-09-04T09:55:42.762Z,2.80
2022-09-04T09:58:44.604Z,3.38
2022-09-04T10:01:33.330Z,4.65
2022-09-04T10:04:21.977Z,6.43
2022-09-04T10:07:18.171Z,3.97
2022-09-04T10:10:10.971Z,3.35
2022-09-04T10:13:11.608Z,2.90
2022-09-04T10:16:31.828Z,3.67
2022-09-04T10:19:27.492Z,2.47
2022-09-04T10:22:31.811Z,2.85
2022-09-04T10:25:38.834Z,3.33
2022-09-04T10:28:32.117Z,2.80
2022-09-04T10:31:35.479Z,3.17
2022-09-04T10:34:33.900Z,5.97
2022-09-04T10:37:17.069Z,2.33
2022-09-04T10:40:14.705Z,2.40
2022-09-04T10:42:55.654Z,2.90
2022-09-04T10:45:35.880Z,2.30
2022-09-04T10:48:44.302Z,2.20
2022-09-04T10:51:38.828Z,3.33
2022-09-04T10:54:43.928Z,6.70
2022-09-04T10:57:27.806Z,3.13
2022-09-04T11:00:05.579Z,3.90
2022-09-04T11:03:05.412Z,5.25
2022-09-04T11:06:02.585Z,18.73
2022-09-04T11:08:56.208Z,3.22
2022-09-04T11:11:42.253Z,6.95
2022-09-04T11:14:41.537Z,4.55
2022-09-04T11:17:31.744Z,3.50
2022-09-04T11:20:27.592Z,5.55
2022-09-04T11:23:46.254Z,3.30
2022-09-04T11:26:50.628Z,3.83
2022-09-04T11:29:41.396Z,16.60
2022-09-04T11:32:26.058Z,4.50
2022-09-04T11:35:36.415Z,2.63
2022-09-04T11:38:18.638Z,3.58
2022-09-04T11:41:21.633Z,2.30
2022-09-04T11:44:26.555Z,6.97
2022-09-04T11:47:21.515Z,6.05
2022-09-04T11:50:21.686Z,4.40
2022-09-04T11:53:33.570Z,2.55
2022-09-04T11:56:34.500Z,3.03
2022-09-04T11:59:27.943Z,4.03
2022-09-04T12:02:20.159Z,2.85
2022-09-04T12:05:11.661Z,2.90
2022-09-04T12:08:02.442Z,3.28
2022-09-04T12:10:48.008Z,2.83
2022-09-04T12:13:44.053Z,3.45
2022-09-04T12:16:44.491Z,11.63
2022-09-04T12:19:50.734Z,4.20
2022-09-04T12:22:51.971Z,3.60
2022-09-04T12:26:01.494Z,3.67
2022-09-04T12:29:00.240Z,2.92
2022-09-04T12:32:08.437Z,4.00
2022-09-04T12:35:29.742Z,4.05
2022-09-04T12:38:44.071Z,7.15
2022-09-04T12:41:19.059Z,3.63
2022-09-04T12:44:05.907Z,3.20
2022-09-04T12:46:50.485Z,2.90
2022-09-04T12:49:44.653Z,2.95
2022-09-04T12:52:23.336Z,4.28
2022-09-04T12:55:03.374Z,3.72
2022-09-04T12:57:46.761Z,3.42
2022-09-04T13:00:17.644Z,5.13
2022-09-04T13:02:57.363Z,3.95
2022-09-04T13:05:53.243Z,2.75
2022-09-04T13:08:35.794Z,2.17
2022-09-04T13:11:18.505Z,3.50
2022-09-04T13:13:57.504Z,3.33
2022-09-04T13:16:32.217Z,3.85
2022-09-04T13:19:13.717Z,3.17
2022-09-04T13:21:58.759Z,2.42
2022-09-04T13:24:44.047Z,2.25
2022-09-04T13:27:41.036Z,1.90
2022-09-04T13:30:15.483Z,2.05
2022-09-04T13:33:10.214Z,2.10
2022-09-04T13:36:16.628Z,2.00
2022-09-04T13:39:19.216Z,2.75
2022-09-04T13:42:36.110Z,4.05
2022-09-04T13:45:23.373Z,3.13
2022-09-04T13:47:56.054Z,2.55
2022-09-04T13:50:29.913Z,2.30
2022-09-04T13:53:03.627Z,2.20
2022-09-04T13:55:36.250Z,4.00
2022-09-04T13:58:12.298Z,3.63
2022-09-04T14:00:49.516Z,2.85
2022-09-04T14:03:42.094Z,2.50
2022-09-04T14:06:14.962Z,1.80
2022-09-04T14:08:45.520Z,2.92
2022-09-04T14:12:03.603Z,1.52
2022-09-04T14:15:08.962Z,2.58
2022-09-04T14:17:46.686Z,2.13
2022-09-04T14:20:22.618Z,2.75
2022-09-04T14:23:00.376Z,2.90
2022-09-04T14:25:40.465Z,5.40
2022-09-04T14:28:18.828Z,7.30
2022-09-04T14:30:58.838Z,4.18
2022-09-04T14:33:37.327Z,2.70
2022-09-04T14:36:15.207Z,2.30
2022-09-04T14:39:15.405Z,1.90
2022-09-04T14:41:59.822Z,2.05
2022-09-04T14:44:42.732Z,2.00
2022-09-04T14:47:25.613Z,2.38
2022-09-04T14:49:57.897Z,2.50
2022-09-04T14:52:32.552Z,2.95
2022-09-04T14:55:03.931Z,2.60
2022-09-04T14:57:38.798Z,2.80
2022-09-04T15:00:14.916Z,2.60
2022-09-04T15:02:48.707Z,2.05
2022-09-04T15:05:23.673Z,2.50
2022-09-04T15:08:02.998Z,2.70
2022-09-04T15:10:38.541Z,2.85
2022-09-04T15:13:38.977Z,3.42
2022-09-04T15:16:18.400Z,2.50
2022-09-04T15:19:03.754Z,2.78
2022-09-04T15:21:44.108Z,2.30
2022-09-04T15:24:26.682Z,2.55
2022-09-04T15:27:03.869Z,1.55
2022-09-04T15:29:40.938Z,2.50
2022-09-04T15:32:13.903Z,2.35
2022-09-04T15:34:43.159Z,1.92
2022-09-04T15:37:22.306Z,2.70
2022-09-04T15:40:01.371Z,2.33
2022-09-04T15:42:42.403Z,2.88
2022-09-04T15:45:19.015Z,2.03
2022-09-04T15:47:59.793Z,2.00
2022-09-04T15:50:33.905Z,2.55
2022-09-04T15:53:17.132Z,2.92
2022-09-04T15:55:47.099Z,2.92
2022-09-04T15:58:29.420Z,2.50
2022-09-04T16:01:16.829Z,2.90
2022-09-04T16:04:00.217Z,2.28
2022-09-04T16:06:32.829Z,2.25
2022-09-04T16:09:10.764Z,3.47
2022-09-04T16:11:44.115Z,2.70
2022-09-04T16:14:20.034Z,2.90
2022-09-04T16:16:54.140Z,4.05
2022-09-04T16:19:30.152Z,3.22
2022-09-04T16:22:11.626Z,3.15
2022-09-04T16:24:47.379Z,3.33
2022-09-04T16:27:21.332Z,2.92
2022-09-04T16:29:57.370Z,3.45
2022-09-04T16:32:28.967Z,3.65
2022-09-04T16:35:02.254Z,3.50
2022-09-04T16:37:36.626Z,6.30
2022-09-04T16:40:22.659Z,3.33
2022-09-04T16:42:55.441Z,3.85
2022-09-04T16:45:26.604Z,3.90
2022-09-04T16:48:09.638Z,4.40
2022-09-04T16:50:56.058Z,4.57
2022-09-04T16:53:38.305Z,4.30
2022-09-04T16:56:26.412Z,3.80
2022-09-04T16:59:00.580Z,4.20
2022-09-04T17:01:33.221Z,3.03
2022-09-04T17:04:25.259Z,3.67
2022-09-04T17:07:03.836Z,3.72
2022-09-04T17:09:56.729Z,3.72
2022-09-04T17:12:48.694Z,3.90
2022-09-04T17:15:28.263Z,3.73
2022-09-04T17:17:59.355Z,3.70
2022-09-04T17:21:58.375Z,4.93
2022-09-04T17:28:57.273Z,5.10
2022-09-04T17:29:11.932Z,4.00
2022-09-04T17:29:36.277Z,4.03
2022-09-04T17:36:43.085Z,5.18
2022-09-04T17:40:32.917Z,3.80
2022-09-04T17:40:47.896Z,4.60
2022-09-04T17:41:38.378Z,5.40
2022-09-04T17:44:14.468Z,5.20
2022-09-04T17:46:55.779Z,3.97
2022-09-04T17:49:34.648Z,3.23
2022-09-04T17:52:07.297Z,3.77
2022-09-04T17:54:41.269Z,4.07
2022-09-04T17:57:16.742Z,4.90
2022-09-04T17:59:57.063Z,3.37
2022-09-04T18:02:35.927Z,3.50
2022-09-04T18:05:16.107Z,4.30
2022-09-04T18:08:08.139Z,4.03
2022-09-04T18:10:53.286Z,3.50
2022-09-04T18:13:37.748Z,3.87
2022-09-04T18:16:27.066Z,4.33
2022-09-04T18:19:14.360Z,3.90
2022-09-04T18:21:51.395Z,3.63
2022-09-04T18:24:43.870Z,3.50
2022-09-04T18:27:19.114Z,3.40
2022-09-04T18:32:29.038Z,3.80
2022-09-04T18:37:16.262Z,3.67
2022-09-04T18:37:24.929Z,3.90
2022-09-04T18:39:08.152Z,3.77
2022-09-04T18:47:17.395Z,5.03
2022-09-04T18:50:21.023Z,6.43
2022-09-04T18:50:40.776Z,3.90
2022-09-04T18:53:35.113Z,4.80
2022-09-04T18:56:20.311Z,4.30
2022-09-04T18:59:01.867Z,4.80
2022-09-04T19:01:41.231Z,4.80
2022-09-04T19:04:43.444Z,4.33
2022-09-04T19:07:23.243Z,5.00
2022-09-04T19:10:12.356Z,4.40
2022-09-04T19:12:55.975Z,4.77
2022-09-04T19:15:36.216Z,6.70
2022-09-04T19:18:16.408Z,8.13
2022-09-04T19:20:50.436Z,6.77
2022-09-04T19:23:26.608Z,5.03
2022-09-04T19:26:01.261Z,4.07
2022-09-04T19:28:47.051Z,3.87
2022-09-04T19:31:30.250Z,4.17
2022-09-04T19:34:06.305Z,4.30
2022-09-04T19:36:38.921Z,3.93
2022-09-04T19:45:56.067Z,4.33
2022-09-04T19:46:09.597Z,3.40
2022-09-04T19:46:25.997Z,4.30
2022-09-04T19:48:20.810Z,3.50
2022-09-04T19:53:21.653Z,3.57
2022-09-04T19:53:54.213Z,3.80
2022-09-04T19:56:30.410Z,3.80
2022-09-04T19:59:06.719Z,4.10
2022-09-04T20:01:46.071Z,4.27
2022-09-04T20:04:26.203Z,3.13
2022-09-04T20:06:59.676Z,3.60
2022-09-04T20:09:35.560Z,5.70
2022-09-04T20:12:12.544Z,3.20
2022-09-04T20:14:48.479Z,3.20
2022-09-04T20:17:45.642Z,3.40
2022-09-04T20:20:23.245Z,3.20
2022-09-04T20:22:55.094Z,3.83
2022-09-04T20:25:33.543Z,3.97
2022-09-04T20:28:19.110Z,9.47
2022-09-04T20:31:36.102Z,16.43
2022-09-04T20:34:17.167Z,4.07
2022-09-04T20:36:51.313Z,4.20
2022-09-04T20:39:24.426Z,6.83
2022-09-04T20:41:57.889Z,5.20
2022-09-04T20:44:45.823Z,5.50
2022-09-04T20:52:43.999Z,3.27
2022-09-04T20:53:06.108Z,10.07
2022-09-04T20:53:28.391Z,4.10
2022-09-04T20:56:17.090Z,3.57
2022-09-04T21:03:07.825Z,4.43
2022-09-04T21:03:10.664Z,11.37
2022-09-04T21:05:23.763Z,7.47
2022-09-04T21:07:58.128Z,3.10
2022-09-04T21:10:32.221Z,3.87
2022-09-04T21:13:13.815Z,7.17
2022-09-04T21:15:53.249Z,6.30
2022-09-04T21:19:10.663Z,5.10
2022-09-04T21:22:00.368Z,5.00
2022-09-04T21:24:57.355Z,5.00
2022-09-04T21:27:53.964Z,6.57
2022-09-04T21:30:42.852Z,5.90
2022-09-04T21:33:26.602Z,7.10
2022-09-04T21:36:26.245Z,9.70
2022-09-04T21:39:20.776Z,5.20
2022-09-04T21:42:16.527Z,4.80
2022-09-04T21:45:17.831Z,6.50
2022-09-04T21:48:06.944Z,6.27
2022-09-04T21:51:01.839Z,6.00
2022-09-04T21:53:53.746Z,4.83
2022-09-04T22:02:25.534Z,5.53
2022-09-04T22:02:44.804Z,5.80
2022-09-04T22:03:31.469Z,5.77
2022-09-04T22:06:11.209Z,4.43
2022-09-04T22:13:30.097Z,5.97
2022-09-04T22:13:38.174Z,4.97
2022-09-04T22:14:51.239Z,4.17
2022-09-04T22:17:45.684Z,4.20
2022-09-04T22:20:43.538Z,4.10
2022-09-04T22:23:41.370Z,5.20
2022-09-04T22:26:34.209Z,4.27
2022-09-04T22:29:33.846Z,3.03
2022-09-04T22:32:52.506Z,3.87
2022-09-04T22:35:54.481Z,4.17
2022-09-04T22:38:54.840Z,4.00
2022-09-04T22:41:40.384Z,4.50
2022-09-04T22:44:27.782Z,9.27
2022-09-04T22:47:27.822Z,5.20
2022-09-04T22:50:29.015Z,4.77
2022-09-04T22:53:42.989Z,4.97
2022-09-04T22:56:25.195Z,4.70
2022-09-04T22:59:26.976Z,4.17
2022-09-04T23:02:54.226Z,4.23
2022-09-04T23:07:59.148Z,8.70
2022-09-04T23:13:52.085Z,5.27
2022-09-04T23:13:54.384Z,3.83
2022-09-04T23:15:37.351Z,4.30
2022-09-04T23:24:50.456Z,4.10
2022-09-04T23:26:43.383Z,3.97
2022-09-04T23:26:58.143Z,4.10
2022-09-04T23:27:50.065Z,4.73
2022-09-04T23:30:27.333Z,4.67
2022-09-04T23:33:39.225Z,3.90
2022-09-04T23:36:36.831Z,4.50
2022-09-04T23:39:43.836Z,4.60
2022-09-04T23:42:30.681Z,4.60
2022-09-04T23:45:22.354Z,3.27
2022-09-04T23:48:17.186Z,5.17
2022-09-04T23:50:54.217Z,3.77
2022-09-04T23:53:33.919Z,4.83
2022-09-04T23:56:27.887Z,3.57
2022-09-04T23:59:30.292Z,4.40
